Pine Ridge, Indiana
Current Conditions -  °F | °C
As of 10:16 AM on Monday 22 Dec 2014 (Local Time) from KHUF Reporting Station
Light Rain Light Rain  
Wind Chill: 31°   Ceiling: 3400
Heat Index: 37°   Visibility: 8mi
Dew Point: 32°   Wind: 8mph
Humidity: 82%   Direction: 120°ESE
Pressure: 29.91"   Gusts: NA
Location:  39.5107°N, 87.4772°W
Report Text: KHUF 221516Z 12007KT 8SM -RA FEW025 BKN034 OVC055 03/00 A2991 RMK AO2 UPB1457E03 P0001 T00280000
Loading
Personal Weather Stations






























Interactive Weather Map New forecast layout! Learn more

10-Day Weather Forecast

Advertisements
Track Severe Weather on mobile